createdAt,value
2023-05-25T00:01:01.908Z,4.55
2023-05-25T00:03:32.199Z,4.00
2023-05-25T00:06:02.388Z,3.95
2023-05-25T00:08:30.654Z,4.28
2023-05-25T00:10:58.690Z,3.90
2023-05-25T00:13:27.946Z,4.28
2023-05-25T00:15:55.969Z,4.18
2023-05-25T00:18:24.939Z,4.22
2023-05-25T00:20:54.398Z,4.20
2023-05-25T00:23:22.554Z,4.50
2023-05-25T00:25:50.867Z,3.90
2023-05-25T00:28:18.871Z,4.18
2023-05-25T00:30:48.168Z,4.07
2023-05-25T00:33:16.168Z,4.18
2023-05-25T00:35:49.676Z,4.32
2023-05-25T00:38:18.577Z,3.90
2023-05-25T00:40:46.738Z,4.05
2023-05-25T00:43:14.942Z,4.47
2023-05-25T00:45:43.144Z,4.47
2023-05-25T00:48:13.224Z,4.38
2023-05-25T00:50:42.920Z,4.30
2023-05-25T00:53:12.769Z,4.47
2023-05-25T00:55:45.572Z,4.03
2023-05-25T00:58:14.827Z,4.30
2023-05-25T01:00:46.053Z,4.22
2023-05-25T01:03:17.826Z,4.45
2023-05-25T01:05:50.177Z,4.00
2023-05-25T01:08:20.708Z,3.88
2023-05-25T01:10:50.662Z,4.43
2023-05-25T01:13:20.245Z,4.30
2023-05-25T01:15:49.416Z,4.35
2023-05-25T01:18:19.081Z,4.38
2023-05-25T01:21:12.982Z,4.32
2023-05-25T01:23:45.227Z,4.00
2023-05-25T01:26:16.699Z,4.07
2023-05-25T01:28:50.349Z,4.22
2023-05-25T01:31:21.728Z,4.05
2023-05-25T01:33:51.534Z,4.10
2023-05-25T01:36:21.461Z,3.83
2023-05-25T01:38:49.913Z,4.00
2023-05-25T01:41:17.945Z,3.92
2023-05-25T01:43:46.438Z,3.70
2023-05-25T01:46:25.673Z,4.15
2023-05-25T01:48:59.316Z,3.92
2023-05-25T01:51:34.894Z,4.05
2023-05-25T01:54:10.366Z,3.67
2023-05-25T01:56:39.532Z,3.67
2023-05-25T01:59:09.767Z,3.70
2023-05-25T02:01:38.712Z,3.67
2023-05-25T02:04:07.177Z,4.03
2023-05-25T02:06:38.314Z,3.92
2023-05-25T02:09:06.246Z,3.70
2023-05-25T02:11:34.180Z,3.70
2023-05-25T02:14:02.141Z,3.75
2023-05-25T02:16:30.327Z,3.75
2023-05-25T02:18:59.157Z,3.58
2023-05-25T02:21:28.268Z,3.75
2023-05-25T02:23:58.458Z,3.63
2023-05-25T02:26:26.542Z,3.38
2023-05-25T02:28:54.571Z,3.53
2023-05-25T02:31:23.050Z,3.65
2023-05-25T02:33:51.323Z,3.72
2023-05-25T02:36:19.850Z,4.18
2023-05-25T02:38:52.277Z,3.80
2023-05-25T02:41:25.212Z,4.07
2023-05-25T02:43:53.481Z,3.55
2023-05-25T02:46:23.049Z,3.55
2023-05-25T02:48:52.612Z,3.70
2023-05-25T02:51:21.196Z,3.50
2023-05-25T02:53:50.173Z,3.70
2023-05-25T02:56:18.831Z,3.88
2023-05-25T02:58:49.093Z,3.63
2023-05-25T03:01:19.318Z,3.92
2023-05-25T03:03:52.420Z,3.97
2023-05-25T03:06:21.808Z,3.60
2023-05-25T03:08:50.755Z,3.70
2023-05-25T03:11:19.186Z,4.07
2023-05-25T03:13:49.192Z,3.58
2023-05-25T03:16:17.690Z,3.63
2023-05-25T03:18:46.569Z,3.83
2023-05-25T03:21:15.264Z,3.75
2023-05-25T03:23:43.693Z,3.58
2023-05-25T03:26:12.323Z,3.75
2023-05-25T03:28:40.759Z,3.53
2023-05-25T03:31:10.979Z,3.78
2023-05-25T03:33:39.616Z,3.90
2023-05-25T03:36:09.580Z,3.35
2023-05-25T03:38:38.529Z,3.65
2023-05-25T03:41:07.535Z,3.90
2023-05-25T03:43:36.309Z,3.92
2023-05-25T03:46:04.702Z,3.58
2023-05-25T03:48:34.493Z,3.30
2023-05-25T03:51:02.931Z,3.38
2023-05-25T03:53:31.935Z,3.88
2023-05-25T03:56:00.508Z,3.63
2023-05-25T03:58:29.065Z,3.78
2023-05-25T04:00:57.746Z,3.58
2023-05-25T04:03:26.405Z,3.40
2023-05-25T04:05:58.337Z,3.42
2023-05-25T04:08:28.932Z,3.50
2023-05-25T04:10:57.557Z,3.40
2023-05-25T04:13:26.486Z,4.03
2023-05-25T04:15:55.152Z,3.50
2023-05-25T04:18:23.748Z,3.50
2023-05-25T04:20:52.961Z,3.50
2023-05-25T04:23:22.922Z,3.42
2023-05-25T04:25:52.069Z,4.00
2023-05-25T04:28:20.615Z,3.50
2023-05-25T04:30:49.230Z,3.20
2023-05-25T04:33:18.179Z,3.40
2023-05-25T04:35:46.982Z,3.72
2023-05-25T04:38:17.828Z,3.25
2023-05-25T04:40:48.026Z,3.83
2023-05-25T04:43:18.399Z,3.70
2023-05-25T04:45:47.394Z,3.38
2023-05-25T04:48:16.240Z,3.58
2023-05-25T04:50:45.039Z,3.38
2023-05-25T04:53:13.933Z,3.50
2023-05-25T04:55:42.850Z,3.85
2023-05-25T04:58:14.665Z,3.30
2023-05-25T05:00:44.000Z,3.42
2023-05-25T05:03:13.637Z,3.30
2023-05-25T05:05:44.065Z,3.28
2023-05-25T05:08:12.798Z,3.53
2023-05-25T05:10:41.291Z,3.80
2023-05-25T05:13:11.355Z,3.30
2023-05-25T05:15:41.829Z,3.40
2023-05-25T05:18:10.632Z,3.50
2023-05-25T05:20:39.497Z,3.33
2023-05-25T05:23:08.299Z,3.30
2023-05-25T05:25:38.144Z,3.33
2023-05-25T05:28:06.911Z,3.45
2023-05-25T05:30:36.717Z,3.20
2023-05-25T05:33:08.485Z,3.00
2023-05-25T05:35:37.054Z,3.10
2023-05-25T05:38:06.100Z,2.90
2023-05-25T05:40:34.992Z,3.10
2023-05-25T05:43:03.572Z,2.88
2023-05-25T05:45:32.423Z,2.63
2023-05-25T05:48:01.235Z,3.00
2023-05-25T05:50:31.368Z,2.80
2023-05-25T05:53:00.158Z,3.20
2023-05-25T05:55:28.608Z,2.85
2023-05-25T05:57:57.027Z,2.97
2023-05-25T06:00:26.018Z,2.78
2023-05-25T06:02:54.795Z,3.05
2023-05-25T06:05:23.559Z,3.42
2023-05-25T06:07:53.515Z,3.38
2023-05-25T06:10:22.150Z,3.08
2023-05-25T06:12:50.662Z,2.95
2023-05-25T06:15:19.319Z,3.00
2023-05-25T06:17:47.700Z,2.63
2023-05-25T06:20:16.312Z,3.05
2023-05-25T06:22:45.127Z,2.88
2023-05-25T06:25:15.906Z,2.50
2023-05-25T06:27:44.334Z,2.78
2023-05-25T06:30:13.798Z,2.67
2023-05-25T06:32:43.636Z,2.60
2023-05-25T06:35:19.762Z,2.50
2023-05-25T06:37:49.680Z,3.03
2023-05-25T06:40:19.640Z,2.88
2023-05-25T06:42:48.118Z,2.22
2023-05-25T06:45:16.789Z,2.40
2023-05-25T06:47:45.313Z,2.55
2023-05-25T06:50:14.237Z,2.88
2023-05-25T06:52:43.183Z,2.22
2023-05-25T06:55:12.645Z,2.38
2023-05-25T06:57:43.878Z,2.10
2023-05-25T07:00:13.694Z,2.40
2023-05-25T07:02:42.318Z,2.40
2023-05-25T07:05:11.524Z,2.20
2023-05-25T07:07:40.065Z,2.35
2023-05-25T07:10:10.231Z,2.17
2023-05-25T07:12:38.767Z,2.20
2023-05-25T07:15:10.220Z,2.53
2023-05-25T07:17:38.853Z,2.38
2023-05-25T07:20:09.080Z,2.03
2023-05-25T07:22:38.025Z,2.20
2023-05-25T07:25:07.740Z,2.13
2023-05-25T07:27:36.431Z,2.08
2023-05-25T07:30:06.187Z,1.88
2023-05-25T07:32:36.189Z,2.22
2023-05-25T07:35:05.355Z,2.20
2023-05-25T07:37:35.774Z,2.00
2023-05-25T07:40:04.461Z,2.10
2023-05-25T07:42:34.646Z,1.90
2023-05-25T07:45:03.936Z,2.28
2023-05-25T07:47:32.402Z,2.13
2023-05-25T07:50:02.286Z,2.30
2023-05-25T07:52:30.777Z,2.08
2023-05-25T07:54:59.342Z,1.80
2023-05-25T07:57:27.926Z,1.95
2023-05-25T07:59:56.433Z,2.00
2023-05-25T08:02:24.861Z,2.65
2023-05-25T08:04:53.799Z,1.80
2023-05-25T08:07:24.998Z,2.05
2023-05-25T08:09:53.465Z,1.85
2023-05-25T08:12:38.510Z,1.90
2023-05-25T08:15:10.610Z,1.60
2023-05-25T08:17:39.132Z,2.20
2023-05-25T08:20:10.783Z,1.90
2023-05-25T08:22:40.821Z,2.03
2023-05-25T08:25:09.838Z,1.98
2023-05-25T08:27:38.540Z,1.90
2023-05-25T08:30:08.501Z,2.00
2023-05-25T08:32:37.005Z,1.70
2023-05-25T08:35:05.967Z,1.85
2023-05-25T08:37:35.852Z,1.63
2023-05-25T08:40:08.028Z,1.75
2023-05-25T08:42:36.545Z,1.70
2023-05-25T08:45:05.413Z,2.22
2023-05-25T08:47:36.724Z,2.00
2023-05-25T08:50:05.567Z,1.67
2023-05-25T08:52:35.292Z,2.47
2023-05-25T08:55:08.266Z,2.08
2023-05-25T08:57:47.412Z,1.63
2023-05-25T09:00:18.841Z,2.00
2023-05-25T09:02:59.439Z,2.20
2023-05-25T09:05:28.383Z,1.80
2023-05-25T09:07:58.030Z,1.80
2023-05-25T09:10:29.418Z,1.88
2023-05-25T09:12:58.558Z,1.70
2023-05-25T09:15:27.147Z,1.95
2023-05-25T09:17:55.820Z,1.75
2023-05-25T09:20:25.262Z,1.85
2023-05-25T09:22:54.048Z,1.52
2023-05-25T09:25:22.773Z,1.80
2023-05-25T09:27:53.561Z,1.80
2023-05-25T09:30:25.109Z,1.40
2023-05-25T09:32:56.186Z,1.60
2023-05-25T09:35:25.513Z,1.48
2023-05-25T09:37:56.183Z,1.48
2023-05-25T09:40:24.875Z,1.83
2023-05-25T09:42:54.902Z,1.85
2023-05-25T09:45:24.924Z,1.80
2023-05-25T09:47:56.524Z,1.35
2023-05-25T09:50:25.312Z,1.42
2023-05-25T09:52:58.037Z,1.65
2023-05-25T09:55:33.871Z,1.75
2023-05-25T09:58:14.461Z,1.35
2023-05-25T10:00:43.153Z,1.35
2023-05-25T10:03:15.358Z,1.40
2023-05-25T10:05:44.119Z,1.33
2023-05-25T10:08:13.712Z,1.30
2023-05-25T10:10:43.891Z,1.40
2023-05-25T10:13:15.648Z,1.38
2023-05-25T10:15:46.967Z,1.50
2023-05-25T10:18:17.164Z,1.73
2023-05-25T10:20:48.823Z,1.52
2023-05-25T10:23:21.663Z,1.40
2023-05-25T10:25:56.485Z,1.58
2023-05-25T10:28:30.072Z,1.30
2023-05-25T10:30:59.826Z,1.40
2023-05-25T10:36:09.153Z,1.35
2023-05-25T10:38:42.164Z,1.50
2023-05-25T10:41:12.105Z,1.50
2023-05-25T10:43:42.442Z,1.50
2023-05-25T10:46:12.244Z,1.50
2023-05-25T10:48:42.106Z,1.50
2023-05-25T10:51:11.961Z,1.10
2023-05-25T10:53:46.040Z,1.95
2023-05-25T10:56:15.213Z,1.40
2023-05-25T10:58:47.665Z,1.45
2023-05-25T11:01:17.240Z,1.38
2023-05-25T11:03:59.325Z,1.50
2023-05-25T11:07:05.633Z,1.40
2023-05-25T11:09:36.098Z,1.35
2023-05-25T11:12:06.805Z,1.30
2023-05-25T11:14:42.302Z,1.50
2023-05-25T11:17:13.147Z,1.17
2023-05-25T11:19:44.476Z,1.30
2023-05-25T11:22:18.171Z,1.30
2023-05-25T11:24:46.925Z,1.30
2023-05-25T11:27:15.860Z,1.40
2023-05-25T11:29:45.982Z,1.20
2023-05-25T11:32:16.366Z,1.38
2023-05-25T11:34:49.090Z,1.40
2023-05-25T11:37:21.463Z,1.30
2023-05-25T11:39:51.785Z,1.23
2023-05-25T11:42:22.954Z,1.27
2023-05-25T11:44:53.833Z,1.38
2023-05-25T11:47:25.591Z,1.27
2023-05-25T11:49:57.497Z,1.30
2023-05-25T11:52:26.431Z,1.50
2023-05-25T11:54:54.926Z,1.40
2023-05-25T11:57:26.069Z,1.60
2023-05-25T11:59:57.393Z,1.30
2023-05-25T12:02:26.385Z,1.42
2023-05-25T12:04:56.461Z,1.60
2023-05-25T12:07:26.390Z,1.52
2023-05-25T12:10:07.089Z,1.60
2023-05-25T12:12:42.974Z,1.83
2023-05-25T12:15:15.679Z,1.60
2023-05-25T12:17:47.039Z,1.90
2023-05-25T12:20:17.640Z,1.63
2023-05-25T12:22:47.590Z,1.50
2023-05-25T12:25:21.037Z,1.35
2023-05-25T12:27:49.682Z,1.60
2023-05-25T12:30:19.790Z,1.55
2023-05-25T12:32:55.845Z,1.50
2023-05-25T12:35:24.647Z,1.85
2023-05-25T12:38:11.503Z,1.70
2023-05-25T12:40:39.935Z,1.67
2023-05-25T12:43:08.677Z,1.50
2023-05-25T12:45:43.777Z,1.75
2023-05-25T12:48:12.756Z,1.52
2023-05-25T12:50:58.407Z,1.80
2023-05-25T12:53:27.411Z,1.80
2023-05-25T12:56:03.242Z,1.40
2023-05-25T12:58:34.132Z,1.90
2023-05-25T13:01:04.171Z,1.83
2023-05-25T13:03:32.628Z,1.80
2023-05-25T13:06:04.893Z,1.55
2023-05-25T13:08:33.071Z,1.52
2023-05-25T13:11:03.822Z,1.30
2023-05-25T13:13:33.102Z,1.25
2023-05-25T13:16:01.563Z,1.50
2023-05-25T13:18:31.552Z,1.20
2023-05-25T13:21:00.868Z,1.33
2023-05-25T13:23:29.474Z,1.50
2023-05-25T13:25:58.850Z,1.58
2023-05-25T13:28:29.917Z,1.30
2023-05-25T13:30:58.311Z,2.08
2023-05-25T13:33:29.609Z,1.77
2023-05-25T13:36:08.267Z,2.08
2023-05-25T13:38:37.789Z,1.80
2023-05-25T13:41:06.334Z,2.17
2023-05-25T13:43:34.959Z,2.00
2023-05-25T13:46:04.719Z,1.63
2023-05-25T13:48:33.208Z,1.75
2023-05-25T13:51:04.222Z,1.48
2023-05-25T13:53:32.932Z,1.40
2023-05-25T13:56:01.720Z,1.25
2023-05-25T13:58:30.210Z,1.60
2023-05-25T14:00:58.643Z,1.45
2023-05-25T14:03:27.298Z,1.52
2023-05-25T14:05:57.698Z,1.40
2023-05-25T14:08:27.971Z,1.30
2023-05-25T14:10:56.247Z,1.25
2023-05-25T14:13:24.637Z,1.42
2023-05-25T14:15:53.480Z,1.33
2023-05-25T14:18:21.957Z,1.25
2023-05-25T14:20:52.797Z,1.30
2023-05-25T14:23:21.419Z,1.23
2023-05-25T14:25:51.407Z,1.40
2023-05-25T14:28:19.718Z,1.20
2023-05-25T14:30:48.319Z,1.45
2023-05-25T14:33:17.381Z,1.13
2023-05-25T14:35:46.582Z,1.38
2023-05-25T14:38:15.643Z,1.42
2023-05-25T14:40:44.092Z,1.40
2023-05-25T14:43:15.023Z,1.73
2023-05-25T14:45:43.841Z,1.65
2023-05-25T14:48:16.520Z,1.90
2023-05-25T14:50:45.809Z,1.98
2023-05-25T14:53:14.937Z,1.92
2023-05-25T14:55:46.242Z,1.63
2023-05-25T14:58:16.134Z,1.55
2023-05-25T15:00:44.516Z,1.90
2023-05-25T15:03:15.713Z,1.88
2023-05-25T15:05:44.420Z,1.60
2023-05-25T15:08:13.135Z,1.85
2023-05-25T15:10:41.728Z,2.03
2023-05-25T15:13:11.356Z,1.48
2023-05-25T15:15:43.141Z,1.10
2023-05-25T15:18:12.434Z,1.40
2023-05-25T15:20:40.698Z,1.60
2023-05-25T15:23:08.992Z,1.10
2023-05-25T15:25:37.480Z,1.50
2023-05-25T15:28:05.910Z,1.58
2023-05-25T15:30:40.050Z,1.10
2023-05-25T15:33:10.133Z,1.08
2023-05-25T15:35:40.483Z,1.38
2023-05-25T15:38:09.476Z,1.50
2023-05-25T15:40:38.411Z,1.65
2023-05-25T15:43:10.878Z,1.60
2023-05-25T15:45:39.309Z,1.33
2023-05-25T15:48:10.453Z,1.50
2023-05-25T15:50:39.866Z,1.30
2023-05-25T15:53:08.318Z,1.30
2023-05-25T15:55:36.730Z,1.30
2023-05-25T15:58:05.434Z,1.20
2023-05-25T16:00:34.212Z,1.42
2023-05-25T16:03:03.130Z,1.73
2023-05-25T16:05:32.946Z,1.70
2023-05-25T16:08:01.304Z,1.65
2023-05-25T16:10:29.671Z,1.30
2023-05-25T16:12:58.177Z,1.70
2023-05-25T16:15:27.083Z,1.70
2023-05-25T16:17:56.649Z,1.48
2023-05-25T16:20:25.267Z,1.27
2023-05-25T16:22:55.297Z,1.67
2023-05-25T16:25:23.998Z,1.70
2023-05-25T16:27:52.519Z,1.98
2023-05-25T16:30:20.939Z,1.60
2023-05-25T16:32:49.660Z,1.77
2023-05-25T16:35:18.105Z,1.50
2023-05-25T16:37:46.858Z,1.50
2023-05-25T16:40:17.034Z,1.70
2023-05-25T16:42:45.702Z,1.67
2023-05-25T16:45:14.046Z,1.80
2023-05-25T16:47:42.432Z,1.52
2023-05-25T16:50:11.465Z,1.73
2023-05-25T16:52:39.937Z,1.45
2023-05-25T16:55:09.350Z,1.92
2023-05-25T16:57:39.086Z,1.65
2023-05-25T17:00:08.777Z,1.80
2023-05-25T17:02:37.618Z,2.00
2023-05-25T17:05:07.370Z,1.88
2023-05-25T17:07:36.214Z,1.80
2023-05-25T17:10:05.262Z,1.52
2023-05-25T17:12:33.738Z,1.55
2023-05-25T17:15:03.667Z,1.60
2023-05-25T17:17:32.158Z,1.58
2023-05-25T17:20:00.877Z,1.65
2023-05-25T17:22:29.398Z,1.50
2023-05-25T17:24:58.192Z,1.83
2023-05-25T17:27:26.801Z,1.60
2023-05-25T17:29:56.435Z,1.88
2023-05-25T17:32:27.075Z,1.50
2023-05-25T17:34:55.767Z,2.08
2023-05-25T17:37:24.041Z,1.63
2023-05-25T17:39:52.793Z,1.65
2023-05-25T17:42:21.205Z,1.70
2023-05-25T17:44:49.735Z,1.50
2023-05-25T17:47:18.167Z,2.15
2023-05-25T17:49:48.031Z,1.50
2023-05-25T17:52:16.408Z,1.80
2023-05-25T17:54:44.583Z,1.67
2023-05-25T17:57:13.368Z,1.50
2023-05-25T17:59:45.564Z,1.83
2023-05-25T18:02:16.405Z,1.42
2023-05-25T18:04:45.064Z,1.77
2023-05-25T18:07:15.084Z,1.50
2023-05-25T18:09:43.561Z,1.77
2023-05-25T18:12:13.746Z,1.80
2023-05-25T18:14:42.432Z,1.60
2023-05-25T18:17:11.995Z,1.67
2023-05-25T18:19:40.665Z,1.60
2023-05-25T18:22:09.060Z,1.70
2023-05-25T18:24:40.913Z,1.23
2023-05-25T18:27:09.212Z,1.52
2023-05-25T18:29:37.718Z,1.58
2023-05-25T18:32:08.078Z,1.63
2023-05-25T18:34:36.605Z,1.42
2023-05-25T18:37:07.416Z,1.70
2023-05-25T18:39:35.905Z,2.13
2023-05-25T18:42:06.474Z,1.67
2023-05-25T18:44:36.343Z,1.80
2023-05-25T18:47:04.890Z,1.70
2023-05-25T18:49:34.837Z,1.65
2023-05-25T18:52:10.640Z,1.70
2023-05-25T18:54:39.478Z,1.55
2023-05-25T18:57:09.614Z,1.40
2023-05-25T18:59:38.141Z,1.80
2023-05-25T19:02:07.050Z,1.73
2023-05-25T19:04:35.408Z,1.98
2023-05-25T19:07:03.762Z,1.80
2023-05-25T19:09:32.217Z,1.80
2023-05-25T19:12:01.425Z,2.13
2023-05-25T19:14:31.343Z,1.60
2023-05-25T19:16:59.989Z,1.80
2023-05-25T19:19:28.340Z,1.88
2023-05-25T19:21:56.612Z,1.70
2023-05-25T19:24:24.893Z,1.70
2023-05-25T19:26:53.380Z,1.67
2023-05-25T19:29:23.395Z,1.80
2023-05-25T19:31:55.909Z,1.92
2023-05-25T19:34:24.618Z,1.77
2023-05-25T19:36:59.969Z,1.73
2023-05-25T19:39:33.201Z,1.40
2023-05-25T19:42:01.899Z,1.63
2023-05-25T19:44:30.335Z,1.60
2023-05-25T19:47:01.055Z,2.20
2023-05-25T19:49:29.638Z,1.80
2023-05-25T19:51:58.027Z,1.70
2023-05-25T19:54:26.248Z,1.83
2023-05-25T19:56:54.674Z,1.70
2023-05-25T19:59:28.010Z,1.90
2023-05-25T20:01:56.863Z,1.90
2023-05-25T20:04:27.144Z,1.80
2023-05-25T20:06:55.876Z,2.55
2023-05-25T20:09:30.297Z,1.75
2023-05-25T20:11:59.440Z,2.03
2023-05-25T20:14:27.793Z,1.75
2023-05-25T20:16:56.448Z,1.98
2023-05-25T20:19:26.314Z,1.70
2023-05-25T20:21:55.058Z,1.90
2023-05-25T20:24:23.659Z,1.95
2023-05-25T20:26:56.936Z,2.33
2023-05-25T20:29:27.586Z,2.45
2023-05-25T20:31:56.094Z,1.70
2023-05-25T20:34:24.781Z,1.92
2023-05-25T20:36:54.435Z,2.05
2023-05-25T20:39:22.867Z,1.75
2023-05-25T20:41:51.304Z,2.10
2023-05-25T20:44:19.890Z,2.10
2023-05-25T20:46:48.369Z,2.10
2023-05-25T20:49:16.773Z,2.03
2023-05-25T20:51:50.100Z,1.80
2023-05-25T20:54:20.874Z,1.98
2023-05-25T20:56:51.201Z,2.33
2023-05-25T20:59:19.799Z,2.30
2023-05-25T21:01:48.569Z,2.17
2023-05-25T21:04:17.169Z,2.00
2023-05-25T21:06:45.719Z,2.20
2023-05-25T21:09:14.243Z,2.22
2023-05-25T21:11:44.155Z,2.63
2023-05-25T21:14:12.541Z,1.98
2023-05-25T21:16:41.190Z,2.35
2023-05-25T21:19:09.768Z,2.25
2023-05-25T21:21:38.286Z,2.25
2023-05-25T21:24:07.067Z,2.05
2023-05-25T21:26:35.458Z,2.10
2023-05-25T21:29:05.531Z,3.05
2023-05-25T21:31:33.964Z,2.13
2023-05-25T21:34:02.482Z,2.17
2023-05-25T21:36:30.807Z,2.40
2023-05-25T21:39:01.094Z,2.30
2023-05-25T21:41:29.855Z,2.42
2023-05-25T21:43:58.262Z,2.38
2023-05-25T21:46:28.229Z,2.75
2023-05-25T21:48:57.025Z,2.60
2023-05-25T21:51:25.350Z,2.65
2023-05-25T21:53:53.918Z,2.50
2023-05-25T21:56:22.501Z,2.53
2023-05-25T21:58:50.936Z,2.50
2023-05-25T22:01:19.482Z,2.17
2023-05-25T22:03:49.336Z,2.58
2023-05-25T22:06:17.964Z,2.60
2023-05-25T22:08:46.305Z,2.95
2023-05-25T22:11:14.671Z,2.70
2023-05-25T22:13:43.047Z,2.58
2023-05-25T22:16:11.915Z,3.03
2023-05-25T22:18:43.285Z,2.70
2023-05-25T22:21:13.446Z,2.60
2023-05-25T22:23:41.794Z,2.45
2023-05-25T22:28:56.569Z,2.85
2023-05-25T22:31:25.927Z,2.78
2023-05-25T22:33:54.388Z,2.75
2023-05-25T22:36:24.432Z,2.95
2023-05-25T22:38:52.819Z,2.75
2023-05-25T22:41:21.463Z,2.60
2023-05-25T22:43:49.968Z,2.60
2023-05-25T22:46:21.054Z,2.90
2023-05-25T22:48:49.245Z,3.38
2023-05-25T22:51:17.629Z,2.67
2023-05-25T22:53:47.637Z,2.70
2023-05-25T22:56:16.472Z,2.80
2023-05-25T22:58:47.976Z,3.50
2023-05-25T23:01:16.660Z,2.80
2023-05-25T23:03:45.204Z,2.78
2023-05-25T23:06:13.939Z,2.88
2023-05-25T23:08:46.736Z,3.00
2023-05-25T23:11:19.665Z,3.50
2023-05-25T23:13:48.193Z,3.10
2023-05-25T23:16:18.898Z,2.83
2023-05-25T23:18:47.513Z,2.60
2023-05-25T23:21:15.945Z,2.90
2023-05-25T23:23:44.426Z,2.83
2023-05-25T23:26:13.014Z,2.58
2023-05-25T23:28:43.124Z,2.97
2023-05-25T23:31:11.854Z,2.90
2023-05-25T23:33:40.308Z,2.88
2023-05-25T23:36:09.240Z,2.53
2023-05-25T23:38:37.514Z,3.15
2023-05-25T23:41:06.562Z,3.00
2023-05-25T23:43:35.357Z,3.00
2023-05-25T23:46:05.328Z,2.90
2023-05-25T23:48:33.800Z,3.08
2023-05-25T23:51:03.055Z,2.95
2023-05-25T23:53:31.639Z,3.75
2023-05-25T23:56:00.092Z,2.80
2023-05-25T23:58:28.813Z,3.05
